Terminal Aerodrome Forecast
Issued by NWS

Home | Current Version | Previous Version | Text Only | Print | Product List | Glossary On
Versions: 1 2 3 4 5 6 7 8 9 10 11 12 13 14 15 16 17 18 19
716
FTUS46 KLOX 201301 AAA
TAFLGB
TAF AMD
KLGB 201301Z 2013/2112 VRB03KT P6SM OVC020
     FM201400 VRB03KT P6SM OVC025
     FM201800 19008KT P6SM FEW025
     FM210000 30008KT P6SM SKC
     FM210600 VRB03KT P6SM SCT015 OVC025=

USA.gov is the U.S. government's official web portal to all federal, state and local government web resources and services.